Time;durP1;ratioP1;P1;durP2;ratioP2;P2;SDS_P1;SDS_P2;PMS_P1;PMS_P2;Temp;Humidity;BMP_temperature;BMP_pressure;BME280_temperature;BME280_humidity;BME280_pressure;Samples;Min_cycle;Max_cycle;Signal;HPM_P1;HPM_P2
2021/07/25 03:31:33;;;;;;;14.00;12.50;;;;;;;24.23;64.18;98151.78;7852252;23;20269;-87
2021/07/25 03:34:55;;;;;;;16.23;12.60;;;;;;;24.07;64.73;98128.44;6897960;28;20674;-88
2021/07/25 03:38:17;;;;;;;12.80;11.60;;;;;;;24.36;63.84;98128.09;6899031;28;20217;-87
2021/07/25 03:41:39;;;;;;;13.80;12.13;;;;;;;24.37;63.50;98130.50;6898363;28;20336;-87
2021/07/25 05:34:21;;;;;;;9.63;8.70;;;;;;;24.37;63.22;98213.19;7000038;23;20230;-88
2021/07/25 05:37:43;;;;;;;9.03;7.90;;;;;;;24.56;61.74;98218.56;6889648;28;20202;-87
2021/07/25 05:41:04;;;;;;;8.63;7.37;;;;;;;24.17;63.71;98224.63;6888824;28;20255;-89
2021/07/25 05:44:26;;;;;;;9.33;8.43;;;;;;;24.25;63.17;98225.88;6889444;28;20544;-89
2021/07/25 05:47:48;;;;;;;8.57;7.67;;;;;;;24.34;63.51;98221.25;6888961;28;20204;-88
2021/07/25 05:51:11;;;;;;;9.70;7.83;;;;;;;24.46;63.45;98205.00;6888646;28;20709;-86
2021/07/25 05:54:32;;;;;;;8.93;7.53;;;;;;;24.62;62.22;98222.88;6889308;28;20205;-89
2021/07/25 05:57:54;;;;;;;8.87;7.50;;;;;;;24.65;62.68;98214.81;6888365;28;20291;-89
2021/07/25 06:01:15;;;;;;;9.87;8.70;;;;;;;24.83;62.70;98208.31;6888391;28;20257;-89
2021/07/25 06:04:37;;;;;;;9.57;8.53;;;;;;;25.08;61.95;98224.28;6888337;28;20658;-90
2021/07/25 06:08:01;;;;;;;10.10;9.03;;;;;;;25.10;60.91;98216.50;6888399;28;20217;-89
2021/07/25 06:11:23;;;;;;;11.13;9.07;;;;;;;25.14;60.99;98220.25;6888057;28;20236;-89
2021/07/25 06:14:44;;;;;;;10.83;8.70;;;;;;;25.22;60.64;98197.44;6888602;28;20808;-89
2021/07/25 06:18:07;;;;;;;10.50;8.67;;;;;;;25.60;59.64;98228.25;6887889;28;20625;-88
2021/07/25 06:21:28;;;;;;;10.67;8.97;;;;;;;25.55;59.83;98228.38;6888435;28;20714;-89
2021/07/25 06:24:51;;;;;;;11.60;9.60;;;;;;;25.46;60.10;98228.34;6889197;28;20210;-88
2021/07/25 06:28:13;;;;;;;11.13;9.60;;;;;;;25.53;60.83;98222.34;6896000;28;20214;-88
2021/07/25 06:31:35;;;;;;;9.90;8.40;;;;;;;25.73;59.60;98208.81;6897807;28;20241;-88
2021/07/25 06:34:56;;;;;;;10.20;8.73;;;;;;;25.91;59.07;98218.88;6897341;28;20215;-89
2021/07/25 06:38:22;;;;;;;9.50;8.50;;;;;;;25.98;58.91;98222.00;6899787;28;20205;-88
2021/07/25 06:41:45;;;;;;;10.33;9.30;;;;;;;25.95;59.66;98203.28;6897563;28;20236;-88
2021/07/25 06:45:07;;;;;;;8.67;7.60;;;;;;;26.14;57.87;98198.31;6903140;28;20222;-89
2021/07/25 06:48:31;;;;;;;8.43;7.47;;;;;;;26.32;58.62;98222.09;6907208;28;20204;-89
2021/07/25 06:51:53;;;;;;;10.93;8.83;;;;;;;26.30;58.63;98224.38;6906200;28;20235;-89
2021/07/25 06:55:15;;;;;;;8.47;7.67;;;;;;;26.51;57.16;98208.84;6904741;28;20218;-91
2021/07/25 06:58:41;;;;;;;8.03;7.23;;;;;;;26.36;57.23;98189.13;6905340;28;20213;-93
2021/07/25 07:02:04;;;;;;;8.33;7.47;;;;;;;26.24;57.28;98164.06;6900832;28;20235;-91
2021/07/25 07:05:27;;;;;;;7.90;7.17;;;;;;;26.65;55.95;98140.41;6904368;28;20207;-91
2021/07/25 07:08:55;;;;;;;8.90;6.77;;;;;;;27.33;54.37;98168.06;6912467;28;20192;-91
2021/07/25 07:12:17;;;;;;;8.63;6.70;;;;;;;27.17;52.44;98153.09;6910096;28;20299;-93
2021/07/25 07:15:42;;;;;;;8.20;7.07;;;;;;;26.78;53.98;98147.72;6905497;28;20222;-93
2021/07/25 07:19:04;;;;;;;6.90;6.20;;;;;;;27.13;52.22;98055.22;6909697;28;20221;-93
2021/07/25 07:22:26;;;;;;;7.23;5.80;;;;;;;27.57;50.71;98181.34;6904145;28;20302;-92
2021/07/25 07:25:49;;;;;;;9.43;6.33;;;;;;;27.98;50.93;98187.94;6913520;28;20207;-94
2021/07/25 07:29:11;;;;;;;8.40;5.93;;;;;;;29.03;49.46;98186.69;6914957;28;20212;-93
2021/07/25 07:32:34;;;;;;;10.40;6.20;;;;;;;29.14;48.38;98157.34;6912045;28;20705;-93
2021/07/25 07:35:56;;;;;;;6.77;6.10;;;;;;;29.06;49.50;98180.44;6909253;28;20220;-93
2021/07/25 07:39:23;;;;;;;6.73;6.03;;;;;;;27.88;51.02;98082.19;6919244;28;20206;-94
2021/07/25 07:42:45;;;;;;;7.57;6.00;;;;;;;28.45;49.69;98156.25;6921286;28;20220;-93
2021/07/25 07:46:07;;;;;;;9.47;6.40;;;;;;;26.76;52.37;98135.34;6922046;28;20216;-94
2021/07/25 07:49:30;;;;;;;7.13;6.03;;;;;;;27.33;52.41;98123.78;6921041;28;20205;-93
2021/07/25 07:52:57;;;;;;;8.27;5.70;;;;;;;27.51;52.91;98141.97;6920549;28;20236;-93
2021/07/25 07:56:26;;;;;;;9.63;6.50;;;;;;;27.68;52.18;98139.13;6915945;28;20654;-92
2021/07/25 07:59:47;;;;;;;6.77;5.93;;;;;;;26.96;53.12;98022.06;6908651;28;20298;-93
2021/07/25 08:03:09;;;;;;;7.53;6.70;;;;;;;26.83;55.20;98086.69;6904354;28;20231;-93
2021/07/25 08:06:32;;;;;;;6.47;5.83;;;;;;;27.51;54.69;98116.22;6909803;28;20214;-93
2021/07/25 08:09:54;;;;;;;8.40;6.63;;;;;;;26.72;54.23;98057.75;6917606;28;20295;-92
2021/07/25 08:13:16;;;;;;;7.37;6.60;;;;;;;26.81;55.57;98141.53;6917432;28;20246;-92
2021/07/25 08:16:41;;;;;;;10.03;6.53;;;;;;;26.92;55.86;98151.16;6920378;28;20220;-94
2021/07/25 08:20:04;;;;;;;7.43;6.53;;;;;;;26.79;55.78;98168.69;6921228;28;20195;-92
2021/07/25 08:23:33;;;;;;;9.03;6.40;;;;;;;27.08;52.77;98157.00;6921342;28;20229;-94
2021/07/25 08:27:01;;;;;;;9.60;6.33;;;;;;;27.56;53.94;98183.31;6922236;28;20245;-94
2021/07/25 08:30:23;;;;;;;9.60;6.57;;;;;;;27.41;53.21;98095.22;6920781;28;20551;-94
2021/07/25 08:33:45;;;;;;;9.07;6.37;;;;;;;27.91;52.82;98151.63;6910455;28;20234;-94
2021/07/25 08:37:17;;;;;;;8.03;6.43;;;;;;;28.38;51.23;98178.13;6919251;28;20223;-94
2021/07/25 08:40:40;;;;;;;7.40;5.90;;;;;;;28.14;51.49;98139.09;6923587;28;20222;-95
2021/07/25 08:44:18;;;;;;;8.63;6.17;;;;;;;28.42;51.15;98147.78;6922979;28;20271;-93
2021/07/25 08:47:41;;;;;;;6.70;6.10;;;;;;;28.47;50.15;98130.91;6923472;28;20215;-93
2021/07/25 08:51:05;;;;;;;6.00;5.40;;;;;;;28.47;49.04;98158.66;6921093;28;20209;-93
2021/07/25 08:54:32;;;;;;;8.17;5.73;;;;;;;28.06;51.48;98189.84;6922483;28;20208;-93
2021/07/25 08:58:02;;;;;;;7.67;6.03;;;;;;;27.44;50.91;98174.06;6921931;28;20201;-92
2021/07/25 09:01:33;;;;;;;6.50;5.53;;;;;;;27.97;49.56;98144.75;6917668;28;20228;-92
2021/07/25 09:04:56;;;;;;;7.87;5.90;;;;;;;27.91;50.12;98123.91;6918381;28;20264;-93
2021/07/25 09:12:16;;;;;;;6.73;5.93;;;;;;;27.80;50.33;98189.16;6924001;28;20228;-93
2021/07/25 09:15:42;;;;;;;7.90;5.60;;;;;;;28.31;50.74;98175.03;6923636;28;20196;-92
2021/07/25 09:27:03;;;;;;;6.67;5.93;;;;;;;28.28;49.27;98164.63;6898832;28;20200;-93
2021/07/25 09:30:27;;;;;;;6.87;6.17;;;;;;;28.31;48.47;98152.84;6913077;28;20212;-92
2021/07/25 09:33:56;;;;;;;8.33;6.23;;;;;;;28.68;47.40;98184.47;6918347;28;20244;-92
2021/07/25 09:37:30;;;;;;;7.70;6.37;;;;;;;28.12;48.48;98116.44;6923141;28;20215;-92
2021/07/25 09:40:56;;;;;;;5.50;5.10;;;;;;;28.80;47.43;98190.09;6922737;28;20320;-92
2021/07/25 09:44:18;;;;;;;6.90;5.73;;;;;;;28.31;46.76;98135.41;6922464;28;20181;-92
2021/07/25 09:47:43;;;;;;;6.23;5.30;;;;;;;28.79;47.40;98177.38;6913704;23;20242;-80
2021/07/25 09:51:22;;;;;;;6.30;5.70;;;;;;;28.76;47.26;98192.75;6897888;28;20213;-81
2021/07/25 09:54:43;;;;;;;5.93;5.43;;;;;;;28.65;48.45;98174.84;6898523;28;20216;-80
2021/07/25 09:58:06;;;;;;;6.10;5.60;;;;;;;28.76;48.06;98197.47;6897650;28;20220;-81
2021/07/25 10:01:35;;;;;;;7.97;6.30;;;;;;;28.01;49.25;98172.59;6897123;28;20354;-81
2021/07/25 10:05:09;;;;;;;7.20;5.43;;;;;;;28.35;50.03;98203.75;6896860;28;20292;-81
2021/07/25 10:08:32;;;;;;;5.93;5.30;;;;;;;28.37;49.34;98215.34;6896135;28;20219;-81
2021/07/25 10:11:55;;;;;;;7.67;6.27;;;;;;;28.48;49.34;98218.56;6897522;28;20228;-81
2021/07/25 10:15:19;;;;;;;8.93;6.13;;;;;;;28.82;47.86;98226.63;6897079;28;20704;-81
2021/07/25 10:18:40;;;;;;;6.30;5.70;;;;;;;28.55;49.15;98213.28;6896158;28;20232;-81
2021/07/25 10:22:07;;;;;;;7.07;5.53;;;;;;;28.47;49.09;98214.97;6895385;28;20214;-81
2021/07/25 10:25:30;;;;;;;7.73;6.53;;;;;;;28.54;48.84;98220.00;6894996;28;20255;-81
2021/07/25 10:28:54;;;;;;;8.70;6.13;;;;;;;28.72;48.51;98207.63;6896105;28;20215;-81
2021/07/25 10:32:18;;;;;;;6.40;5.80;;;;;;;29.32;46.57;98216.31;6906040;28;20236;-81
2021/07/25 10:35:40;;;;;;;6.30;5.70;;;;;;;29.22;47.88;98208.41;6899579;28;20234;-81
2021/07/25 10:39:02;;;;;;;6.87;6.17;;;;;;;28.99;47.96;98218.22;6897965;28;20580;-81
2021/07/25 10:42:27;;;;;;;7.50;6.00;;;;;;;28.89;48.10;98216.63;6899091;28;20211;-81
2021/07/25 10:46:17;;;;;;;7.10;6.40;;;;;;;27.79;49.53;98228.28;6897727;28;20234;-81
2021/07/25 10:49:38;;;;;;;6.37;5.70;;;;;;;28.19;48.82;98219.31;6895157;28;20212;-81
2021/07/25 10:53:02;;;;;;;8.67;5.93;;;;;;;28.10;49.38;98217.72;6895297;28;20290;-81
2021/07/25 10:56:59;;;;;;;8.90;6.37;;;;;;;28.16;49.47;98216.38;6895350;28;20294;-81
2021/07/25 11:00:39;;;;;;;7.13;5.80;;;;;;;28.39;49.36;98210.28;6894307;28;20212;-81
2021/07/25 11:04:00;;;;;;;6.23;5.30;;;;;;;28.55;48.63;98211.31;6894739;28;20215;-81
2021/07/25 11:07:38;;;;;;;6.50;5.90;;;;;;;27.86;48.73;98209.16;6894555;28;20251;-81
2021/07/25 11:11:00;;;;;;;5.73;5.23;;;;;;;28.64;48.05;98211.25;6895667;28;20213;-81
2021/07/25 11:14:58;;;;;;;6.97;5.20;;;;;;;28.85;48.31;98210.13;6900453;28;20234;-81
2021/07/25 11:18:32;;;;;;;6.57;5.60;;;;;;;28.39;50.07;98215.84;6868375;28;20214;-81
2021/07/25 11:21:54;;;;;;;6.67;6.07;;;;;;;28.61;49.46;98207.19;6901229;28;20218;-80
2021/07/25 11:25:28;;;;;;;6.47;5.87;;;;;;;28.68;50.16;98220.53;6900581;28;20234;-81
2021/07/25 11:28:49;;;;;;;6.80;6.07;;;;;;;28.82;49.87;98221.91;6899728;28;20304;-81
2021/07/25 11:32:34;;;;;;;6.47;5.87;;;;;;;28.47;49.68;98219.69;6899582;28;20235;-81
2021/07/25 11:35:58;;;;;;;6.37;5.77;;;;;;;28.72;49.73;98210.41;6898857;28;20238;-81
2021/07/25 11:39:20;;;;;;;7.77;5.40;;;;;;;28.70;48.31;98223.78;6899111;28;20220;-81
2021/07/25 11:42:42;;;;;;;6.37;5.13;;;;;;;29.30;46.49;98213.88;6900421;28;20585;-81
2021/07/25 11:46:21;;;;;;;5.40;4.90;;;;;;;29.59;45.63;98207.41;6900890;28;20244;-81
2021/07/25 11:49:42;;;;;;;5.43;4.93;;;;;;;29.63;45.78;98213.91;6899879;28;20209;-81
2021/07/25 11:53:05;;;;;;;6.27;5.17;;;;;;;29.41;45.20;98226.19;6899361;28;20232;-81
2021/07/25 11:56:27;;;;;;;6.60;5.50;;;;;;;28.75;47.71;98229.97;6900194;28;20602;-81
2021/07/25 11:59:50;;;;;;;5.53;5.03;;;;;;;29.12;46.79;98212.41;6898610;28;20211;-81
2021/07/25 12:03:11;;;;;;;5.10;4.60;;;;;;;29.00;47.88;98212.34;6897951;28;20573;-81
2021/07/25 12:06:33;;;;;;;5.50;5.00;;;;;;;28.40;49.20;98205.53;6898625;28;20241;-81
2021/07/25 12:09:56;;;;;;;5.13;4.63;;;;;;;28.42;48.68;98208.81;6897262;28;20205;-81
2021/07/25 12:13:20;;;;;;;4.70;4.13;;;;;;;28.90;46.89;98203.59;6898782;28;20298;-81
2021/07/25 12:16:45;;;;;;;4.97;4.47;;;;;;;28.59;47.14;98209.50;6897198;28;20232;-81
2021/07/25 12:20:11;;;;;;;5.13;4.40;;;;;;;28.53;45.35;98202.53;6897901;28;20591;-81
2021/07/25 12:23:37;;;;;;;5.03;4.53;;;;;;;28.87;45.58;98193.13;6897270;28;20205;-81
2021/07/25 12:27:01;;;;;;;5.90;5.30;;;;;;;28.65;45.37;98191.50;6898349;28;20218;-81
2021/07/25 12:30:23;;;;;;;6.17;4.83;;;;;;;28.97;45.15;98209.44;6898331;28;20235;-81
2021/07/25 12:33:45;;;;;;;5.30;4.80;;;;;;;28.23;46.44;98203.63;6897756;28;20374;-81
2021/07/25 12:37:24;;;;;;;5.47;4.60;;;;;;;28.21;46.74;98194.84;6898437;28;20718;-81
2021/07/25 12:40:47;;;;;;;7.83;4.90;;;;;;;28.39;46.78;98206.69;6897712;28;20213;-81
2021/07/25 12:44:10;;;;;;;6.57;5.20;;;;;;;28.54;46.21;98201.38;6897959;28;20202;-81
2021/07/25 12:47:32;;;;;;;5.77;5.13;;;;;;;28.42;46.09;98192.16;6897986;28;20241;-81
2021/07/25 12:50:59;;;;;;;6.50;4.90;;;;;;;28.39;46.08;98213.06;6897516;28;20677;-81
2021/07/25 12:54:21;;;;;;;6.10;5.13;;;;;;;28.42;46.86;98212.38;6898189;28;20228;-80
2021/07/25 12:57:42;;;;;;;6.33;5.20;;;;;;;28.38;48.15;98202.28;6898459;28;20234;-81
2021/07/25 13:04:42;;;;;;;6.40;5.80;;;;;;;28.13;50.19;98211.53;6896685;28;20200;-81
2021/07/25 13:08:04;;;;;;;6.73;6.00;;;;;;;28.31;51.08;98202.78;6898972;28;20226;-81
2021/07/25 13:11:27;;;;;;;7.87;5.80;;;;;;;28.37;51.69;98197.91;6899873;28;20235;-81
2021/07/25 13:14:49;;;;;;;6.53;5.87;;;;;;;28.13;52.43;98201.22;6899087;28;20649;-81
2021/07/25 13:18:12;;;;;;;6.30;5.80;;;;;;;27.91;51.50;98200.69;6898907;28;20239;-80
2021/07/25 13:21:33;;;;;;;6.60;5.97;;;;;;;28.46;51.27;98195.88;6900043;28;20657;-81
2021/07/25 13:24:55;;;;;;;9.20;7.10;;;;;;;27.74;53.76;98204.31;6901912;28;20274;-81
2021/07/25 13:28:17;;;;;;;8.20;6.33;;;;;;;27.69;52.30;98167.63;6901730;28;20212;-81
2021/07/25 13:31:38;;;;;;;6.20;5.60;;;;;;;27.83;51.60;98184.91;6897935;28;20205;-81
2021/07/25 13:35:01;;;;;;;6.13;5.53;;;;;;;27.33;50.99;98178.31;6893360;28;20258;-81
2021/07/25 13:38:23;;;;;;;6.50;5.70;;;;;;;27.61;51.80;98179.56;6893932;28;20217;-81
2021/07/25 13:41:45;;;;;;;7.57;6.50;;;;;;;28.18;50.53;98178.88;6894202;28;20210;-81
2021/07/25 13:45:09;;;;;;;8.10;5.73;;;;;;;28.37;50.36;98193.13;6894650;28;20298;-81
2021/07/25 13:48:32;;;;;;;6.40;5.80;;;;;;;28.62;49.88;98196.91;6893017;28;20209;-81
2021/07/25 13:51:55;;;;;;;6.73;6.03;;;;;;;27.80;49.40;98185.56;6894274;28;20212;-81
2021/07/25 13:55:17;;;;;;;7.10;5.83;;;;;;;28.84;48.20;98194.63;6893885;28;20613;-81
2021/07/25 13:58:38;;;;;;;7.00;6.30;;;;;;;28.55;48.01;98199.41;6893675;28;20585;-81
2021/07/25 14:02:00;;;;;;;7.07;5.83;;;;;;;28.68;48.21;98179.75;6893800;28;20220;-81
2021/07/25 14:05:22;;;;;;;7.43;6.13;;;;;;;28.20;49.73;98178.53;6894493;28;20229;-81
2021/07/25 14:08:45;;;;;;;7.20;6.60;;;;;;;27.45;50.87;98172.91;6892112;28;20665;-81
2021/07/25 14:12:07;;;;;;;7.87;6.20;;;;;;;28.02;50.04;98171.47;6894826;28;20209;-81
2021/07/25 14:15:28;;;;;;;7.40;6.60;;;;;;;28.20;50.35;98173.00;6893703;28;20540;-81
2021/07/25 14:18:50;;;;;;;7.17;6.20;;;;;;;28.40;49.50;98175.84;6894362;28;20220;-81
2021/07/25 14:22:12;;;;;;;8.37;6.10;;;;;;;28.65;49.55;98165.72;6895428;28;20208;-81
2021/07/25 14:25:37;;;;;;;6.70;6.10;;;;;;;28.82;48.18;98163.63;6895475;28;20256;-81
2021/07/25 14:28:59;;;;;;;6.30;5.70;;;;;;;28.76;48.59;98153.06;6894620;28;20274;-81
2021/07/25 14:32:20;;;;;;;6.97;5.93;;;;;;;29.47;46.56;98149.81;6893143;28;20224;-81
2021/07/25 14:35:42;;;;;;;6.83;5.57;;;;;;;29.74;45.97;98143.66;6894366;28;20241;-81
2021/07/25 14:39:03;;;;;;;6.33;5.73;;;;;;;29.68;45.03;98133.94;6893408;28;20216;-81
2021/07/25 14:42:26;;;;;;;6.03;5.43;;;;;;;29.93;45.06;98145.88;6892731;28;20242;-81
2021/07/25 14:45:48;;;;;;;6.40;5.80;;;;;;;30.05;44.68;98140.31;6892583;28;20244;-81
2021/07/25 14:49:10;;;;;;;6.40;5.80;;;;;;;29.87;45.08;98133.38;6897363;28;20202;-81
2021/07/25 14:52:36;;;;;;;7.23;6.17;;;;;;;28.85;47.59;98126.88;6898032;28;20216;-81
2021/07/25 14:55:57;;;;;;;7.10;6.20;;;;;;;29.82;46.56;98147.47;6897389;28;20364;-81
2021/07/25 14:59:20;;;;;;;7.63;6.90;;;;;;;29.43;45.45;98140.53;6897058;28;20215;-81
2021/07/25 15:02:42;;;;;;;7.20;6.50;;;;;;;29.04;47.91;98116.13;6896891;28;20698;-81
2021/07/25 15:06:04;;;;;;;7.20;6.50;;;;;;;29.37;47.18;98158.56;6898212;28;20258;-81
2021/07/25 15:09:26;;;;;;;7.27;6.57;;;;;;;29.09;47.04;98145.63;6896185;28;20205;-81
2021/07/25 15:12:47;;;;;;;8.47;6.40;;;;;;;29.03;48.55;98166.44;6896835;28;20206;-81
2021/07/25 15:16:10;;;;;;;6.70;5.97;;;;;;;29.41;47.28;98178.16;6896684;28;20584;-81
2021/07/25 15:19:32;;;;;;;6.50;6.00;;;;;;;29.46;47.50;98167.66;6895899;28;20211;-81
2021/07/25 15:22:57;;;;;;;6.73;6.00;;;;;;;29.65;46.39;98173.50;6896259;28;20687;-81
2021/07/25 15:26:20;;;;;;;6.50;5.90;;;;;;;29.64;46.52;98146.88;6895803;28;20224;-81
2021/07/25 15:29:42;;;;;;;6.90;5.60;;;;;;;30.21;45.84;98157.97;6895177;28;20215;-81
2021/07/25 15:33:05;;;;;;;7.33;6.33;;;;;;;29.92;45.67;98152.59;6894819;28;20359;-81
2021/07/25 15:36:27;;;;;;;8.27;5.70;;;;;;;29.65;47.18;98142.13;6895913;28;20230;-81
2021/07/25 15:39:48;;;;;;;6.90;6.30;;;;;;;30.13;45.43;98133.88;6895096;28;20208;-81
2021/07/25 15:43:10;;;;;;;8.07;6.27;;;;;;;30.53;44.87;98131.97;6895162;28;20208;-81
2021/07/25 15:46:31;;;;;;;7.53;6.17;;;;;;;30.89;43.48;98126.34;6903769;23;20254;-80
2021/07/25 15:49:54;;;;;;;7.00;5.87;;;;;;;30.21;46.25;98130.97;6895605;28;20213;-80
2021/07/25 15:53:16;;;;;;;6.63;5.63;;;;;;;30.76;43.08;98124.75;6894854;28;20230;-80
2021/07/25 15:56:39;;;;;;;6.63;5.80;;;;;;;30.44;44.09;98134.88;6894754;28;20233;-80
2021/07/25 16:00:01;;;;;;;5.80;5.20;;;;;;;30.58;44.38;98131.72;6894072;28;20220;-80
2021/07/25 16:03:22;;;;;;;6.80;5.80;;;;;;;30.60;42.47;98135.78;6894710;28;20631;-80
2021/07/25 16:06:45;;;;;;;5.97;5.27;;;;;;;30.60;43.20;98115.50;6895013;28;20245;-81
2021/07/25 16:10:09;;;;;;;6.53;5.93;;;;;;;30.65;42.87;98135.56;6894182;28;20207;-80
2021/07/25 16:13:30;;;;;;;5.90;5.30;;;;;;;30.55;43.37;98133.25;6893995;28;20234;-80
2021/07/25 16:16:52;;;;;;;6.33;5.73;;;;;;;30.37;43.63;98134.66;6895573;28;20728;-80
2021/07/25 16:20:13;;;;;;;6.07;5.50;;;;;;;29.28;44.88;98126.50;6893973;28;20216;-81
2021/07/25 16:23:36;;;;;;;6.20;5.23;;;;;;;29.73;44.40;98078.09;6894833;28;20558;-80
2021/07/25 16:26:58;;;;;;;5.70;5.20;;;;;;;30.16;43.12;98136.78;6894281;28;20282;-80
2021/07/25 16:30:20;;;;;;;6.03;5.43;;;;;;;30.34;42.54;98129.81;6894848;28;20209;-80
2021/07/25 16:33:41;;;;;;;5.83;5.33;;;;;;;30.44;42.95;98128.50;6894416;28;20234;-80
2021/07/25 16:37:06;;;;;;;5.67;5.07;;;;;;;29.78;43.48;98136.25;6895320;28;20239;-80
2021/07/25 16:40:29;;;;;;;5.17;4.77;;;;;;;29.54;44.30;98133.44;6895132;28;20278;-80
2021/07/25 16:43:51;;;;;;;4.77;4.27;;;;;;;29.67;42.71;98148.97;6895042;28;20219;-80
2021/07/25 16:47:12;;;;;;;4.83;4.43;;;;;;;29.92;43.18;98133.97;6894684;28;20811;-80
2021/07/25 16:50:34;;;;;;;4.50;4.10;;;;;;;29.62;43.25;98123.38;6895133;28;20210;-80
2021/07/25 16:53:55;;;;;;;5.10;3.93;;;;;;;29.64;42.13;98132.16;6895000;28;20223;-80
2021/07/25 16:57:18;;;;;;;6.07;4.30;;;;;;;29.55;43.48;98134.25;6895043;28;20239;-80
2021/07/25 17:00:40;;;;;;;5.10;4.60;;;;;;;29.73;43.44;98136.47;6894607;28;20219;-80
2021/07/25 17:04:02;;;;;;;5.53;4.53;;;;;;;30.13;43.02;98133.88;6894870;28;20220;-80
2021/07/25 17:07:23;;;;;;;5.17;4.10;;;;;;;29.77;42.98;98133.84;6894377;28;20226;-80
2021/07/25 17:10:45;;;;;;;5.03;4.20;;;;;;;29.81;41.92;98137.53;6893428;28;20243;-80
2021/07/25 17:14:08;;;;;;;5.17;3.40;;;;;;;29.79;40.73;98123.97;6894896;28;20754;-80
2021/07/25 17:17:29;;;;;;;3.47;3.00;;;;;;;29.61;40.25;98127.31;6895042;28;20702;-81
2021/07/25 17:20:51;;;;;;;3.80;3.50;;;;;;;29.29;41.78;98120.59;6894245;28;20219;-81
2021/07/25 17:24:12;;;;;;;3.77;3.10;;;;;;;29.51;40.37;98108.28;6894739;28;20626;-81
2021/07/25 17:27:35;;;;;;;2.90;2.70;;;;;;;28.95;40.57;98115.38;6894560;28;20719;-81
2021/07/25 17:30:58;;;;;;;3.20;3.00;;;;;;;28.70;41.39;98127.50;6893796;28;20675;-81
2021/07/25 17:34:19;;;;;;;4.83;3.30;;;;;;;29.22;40.59;98125.09;6894130;28;20233;-81
2021/07/25 17:37:41;;;;;;;3.03;2.73;;;;;;;28.91;42.07;98106.06;6893965;28;20226;-81
2021/07/25 17:41:02;;;;;;;3.67;3.20;;;;;;;29.42;41.59;98133.38;6893536;28;20217;-80
2021/07/25 17:44:24;;;;;;;2.53;2.37;;;;;;;29.53;39.79;98125.44;6893985;28;20204;-81
2021/07/25 17:47:47;;;;;;;2.97;2.70;;;;;;;29.29;41.30;98120.59;6894324;28;20239;-81
2021/07/25 17:51:09;;;;;;;3.50;3.20;;;;;;;29.12;41.93;98134.66;6894644;28;20288;-81
2021/07/25 17:54:31;;;;;;;3.00;2.67;;;;;;;28.92;41.11;98145.75;6894632;28;20231;-80
2021/07/25 17:57:52;;;;;;;2.70;2.50;;;;;;;28.73;42.10;98134.34;6894542;28;20697;-81
2021/07/25 18:01:14;;;;;;;3.23;2.93;;;;;;;28.98;41.47;98117.50;6894343;28;20205;-81
2021/07/25 18:04:38;;;;;;;3.07;2.87;;;;;;;28.80;42.10;98137.38;6894491;28;20669;-80
2021/07/25 18:07:59;;;;;;;2.90;2.63;;;;;;;28.76;42.06;98151.13;6893932;28;20575;-80
2021/07/25 18:11:21;;;;;;;2.83;2.63;;;;;;;28.83;42.13;98147.81;6894494;28;20201;-81
2021/07/25 18:14:43;;;;;;;3.57;2.80;;;;;;;29.13;42.05;98132.72;6893940;28;20240;-81
2021/07/25 18:18:04;;;;;;;3.80;2.97;;;;;;;29.10;42.16;98131.41;6894062;28;20236;-81
2021/07/25 18:21:27;;;;;;;3.30;3.00;;;;;;;28.96;43.48;98139.22;6894448;28;20564;-80
2021/07/25 18:24:49;;;;;;;3.30;3.00;;;;;;;28.49;45.40;98142.50;6894276;28;20205;-80
2021/07/25 18:28:11;;;;;;;3.03;2.83;;;;;;;28.88;44.67;98136.47;6894173;28;20713;-81
2021/07/25 18:31:33;;;;;;;3.50;3.10;;;;;;;28.72;46.20;98152.94;6894143;28;20221;-80
2021/07/25 18:34:56;;;;;;;3.97;3.00;;;;;;;28.44;46.19;98154.63;6894705;28;20238;-81
2021/07/25 18:38:18;;;;;;;4.17;3.20;;;;;;;28.24;46.88;98146.25;6894284;28;20208;-80
2021/07/25 18:41:40;;;;;;;4.27;3.20;;;;;;;28.18;46.97;98145.59;6894703;28;20210;-81
2021/07/25 18:45:02;;;;;;;3.60;3.07;;;;;;;27.77;47.85;98147.41;6897465;28;20208;-80
2021/07/25 18:48:23;;;;;;;3.70;3.07;;;;;;;27.56;48.58;98138.19;6899910;28;20201;-81
2021/07/25 18:51:45;;;;;;;4.77;3.30;;;;;;;27.28;49.93;98148.03;6895303;28;20551;-81
2021/07/25 18:55:09;;;;;;;3.60;3.30;;;;;;;27.04;51.24;98159.59;6895730;28;20224;-81
2021/07/25 18:58:31;;;;;;;4.87;3.43;;;;;;;26.80;51.78;98147.41;6899264;28;20208;-81
2021/07/25 19:01:53;;;;;;;6.40;3.40;;;;;;;26.70;52.73;98164.31;6908947;28;20216;-81
2021/07/25 19:05:14;;;;;;;3.90;3.53;;;;;;;26.62;53.14;98171.47;6907527;28;20203;-81
2021/07/25 19:08:36;;;;;;;3.87;3.47;;;;;;;26.75;52.59;98181.56;6895551;28;20221;-80
2021/07/25 19:11:59;;;;;;;4.77;3.27;;;;;;;26.78;52.25;98205.81;6893070;28;20218;-81
2021/07/25 19:15:22;;;;;;;6.07;3.33;;;;;;;26.40;53.01;98210.28;6897273;28;20233;-81
2021/07/25 19:18:44;;;;;;;4.07;3.63;;;;;;;26.13;53.18;98201.41;6893034;28;20205;-80
2021/07/25 19:22:05;;;;;;;4.07;3.60;;;;;;;26.05;53.87;98214.06;6892591;28;20204;-80
2021/07/25 19:25:27;;;;;;;4.40;3.30;;;;;;;26.19;53.40;98239.63;6893822;28;20233;-81
2021/07/25 19:28:50;;;;;;;3.67;3.37;;;;;;;26.02;53.84;98228.50;6893445;28;20216;-80
2021/07/25 19:32:12;;;;;;;3.87;3.40;;;;;;;25.98;54.30;98243.28;6894050;28;20212;-80
2021/07/25 19:35:35;;;;;;;8.27;3.50;;;;;;;25.70;55.24;98239.84;6898041;28;20232;-80
2021/07/25 19:38:57;;;;;;;3.53;3.23;;;;;;;25.61;54.53;98258.28;6897563;28;20211;-80
2021/07/25 19:42:19;;;;;;;5.30;3.40;;;;;;;25.37;54.05;98245.97;6898861;28;20212;-80
2021/07/25 19:45:42;;;;;;;3.37;3.13;;;;;;;25.52;53.84;98259.38;6897394;28;20275;-80
2021/07/25 19:49:06;;;;;;;4.03;3.73;;;;;;;25.45;54.41;98279.16;6898204;28;20195;-81
2021/07/25 19:52:28;;;;;;;3.40;3.10;;;;;;;25.64;53.76;98271.50;6899267;28;20212;-80
2021/07/25 19:55:49;;;;;;;4.33;3.67;;;;;;;25.36;54.89;98283.78;6898318;28;20238;-80
2021/07/25 19:59:11;;;;;;;4.40;3.30;;;;;;;25.34;54.88;98265.91;6899131;28;20206;-80
2021/07/25 20:02:34;;;;;;;4.27;3.53;;;;;;;25.26;55.36;98284.00;6909396;28;20240;-81
2021/07/25 20:05:58;;;;;;;5.37;3.57;;;;;;;25.03;55.27;98265.78;6907219;28;20238;-80
2021/07/25 20:09:19;;;;;;;5.10;3.77;;;;;;;25.18;55.61;98294.97;6898909;28;20576;-80
2021/07/25 20:12:42;;;;;;;4.13;3.83;;;;;;;24.93;55.97;98293.59;6900664;28;20213;-80
2021/07/25 20:16:08;;;;;;;3.93;3.40;;;;;;;24.88;56.04;98292.88;6904727;28;20234;-80
2021/07/25 20:19:30;;;;;;;3.83;3.43;;;;;;;24.40;56.77;98283.41;6900998;28;20217;-81
2021/07/25 20:22:52;;;;;;;3.70;3.40;;;;;;;24.45;57.39;98295.16;6898590;28;20579;-80
2021/07/25 20:26:14;;;;;;;5.37;3.80;;;;;;;24.88;55.21;98287.38;6898319;28;20724;-80
2021/07/25 20:29:36;;;;;;;4.27;3.60;;;;;;;24.72;55.17;98286.88;6898891;28;20226;-80
2021/07/25 20:32:57;;;;;;;4.07;3.60;;;;;;;24.48;55.38;98271.69;6898962;28;20210;-81
2021/07/25 20:36:20;;;;;;;4.10;3.70;;;;;;;24.74;55.61;98300.38;6899234;28;20719;-80
2021/07/25 20:39:42;;;;;;;5.37;3.90;;;;;;;24.76;56.10;98284.31;6899384;28;20215;-81
2021/07/25 20:43:05;;;;;;;5.90;3.50;;;;;;;24.88;55.73;98295.63;6899381;28;20234;-80
2021/07/25 20:46:27;;;;;;;5.63;3.87;;;;;;;24.60;56.52;98302.34;6897256;28;20244;-80
2021/07/25 20:49:49;;;;;;;5.30;3.83;;;;;;;24.35;57.51;98302.78;6898443;28;20345;-80
2021/07/25 20:53:15;;;;;;;5.60;3.70;;;;;;;24.61;56.42;98295.69;6898705;28;20271;-80
2021/07/25 20:56:37;;;;;;;4.23;3.40;;;;;;;24.65;55.62;98299.47;6898891;28;20289;-80
2021/07/25 20:59:58;;;;;;;5.03;3.40;;;;;;;24.59;56.55;98296.00;6897504;28;20206;-80
